Time;durP1;ratioP1;P1;durP2;ratioP2;P2;SDS_P1;SDS_P2;PMS_P1;PMS_P2;Temp;Humidity;BMP_temperature;BMP_pressure;BME280_temperature;BME280_humidity;BME280_pressure;Samples;Min_cycle;Max_cycle;Signal;HPM_P1;HPM_P2
2023/04/26 00:01:06;;;;;;;6.13;1.20;;;;;;;;;;5009008;28;21037;-80
2023/04/26 00:03:39;;;;;;;7.85;1.20;;;;;;;;;;5004594;28;20770;-80
2023/04/26 00:06:13;;;;;;;6.22;1.35;;;;;;;;;;4990781;28;20433;-80
2023/04/26 00:08:47;;;;;;;6.93;1.15;;;;;;;;;;5009445;28;20426;-79
2023/04/26 00:11:15;;;;;;;7.20;1.33;;;;;;;;;;4994752;28;20450;-79
2023/04/26 00:13:43;;;;;;;6.72;1.42;;;;;;;;;;5008460;28;20433;-80
2023/04/26 00:16:17;;;;;;;5.80;1.05;;;;;;;;;;5008542;28;20423;-80
2023/04/26 00:18:45;;;;;;;4.93;1.30;;;;;;;;;;4994643;28;20425;-80
2023/04/26 00:21:13;;;;;;;4.82;1.20;;;;;;;;;;4992956;28;20427;-80
2023/04/26 00:23:41;;;;;;;4.15;1.20;;;;;;;;;;4992565;28;20429;-79
2023/04/26 00:26:10;;;;;;;4.70;1.40;;;;;;;;;;5008845;28;20540;-79
2023/04/26 00:28:37;;;;;;;7.28;1.20;;;;;;;;;;4992919;28;20433;-80
2023/04/26 00:31:06;;;;;;;10.27;1.90;;;;;;;;;;5009118;28;20426;-80
2023/04/26 00:33:33;;;;;;;6.32;1.30;;;;;;;;;;5007666;28;20899;-80
2023/04/26 00:36:01;;;;;;;6.60;1.60;;;;;;;;;;4991394;28;20422;-79
2023/04/26 00:38:30;;;;;;;6.35;1.67;;;;;;;;;;4988216;28;20798;-80
2023/04/26 00:41:03;;;;;;;6.50;1.50;;;;;;;;;;5005645;28;20434;-79
2023/04/26 00:43:32;;;;;;;6.78;1.55;;;;;;;;;;4990645;28;20434;-80
2023/04/26 00:46:00;;;;;;;6.95;1.80;;;;;;;;;;4990986;28;20426;-80
2023/04/26 00:48:27;;;;;;;9.85;1.92;;;;;;;;;;5008834;28;20438;-80
2023/04/26 00:50:55;;;;;;;6.28;1.65;;;;;;;;;;4990860;28;21214;-80
2023/04/26 00:53:23;;;;;;;9.05;1.70;;;;;;;;;;4991551;28;21005;-80
2023/04/26 00:55:57;;;;;;;10.23;1.90;;;;;;;;;;4982388;28;20451;-80
2023/04/26 00:58:25;;;;;;;8.88;1.95;;;;;;;;;;4990651;28;21026;-79
2023/04/26 01:01:00;;;;;;;9.37;1.97;;;;;;;;;;4999807;28;20431;-80
2023/04/26 01:03:28;;;;;;;4.80;1.50;;;;;;;;;;4991852;28;21327;-79
2023/04/26 01:05:56;;;;;;;9.60;1.60;;;;;;;;;;4992435;28;20422;-80
2023/04/26 01:08:29;;;;;;;7.22;1.48;;;;;;;;;;4994942;28;20447;-79
2023/04/26 01:11:02;;;;;;;7.85;1.52;;;;;;;;;;4991118;28;20422;-80
2023/04/26 01:13:31;;;;;;;8.18;1.75;;;;;;;;;;5007342;28;20426;-80
2023/04/26 01:16:07;;;;;;;11.13;1.65;;;;;;;;;;4984648;28;20415;-82
2023/04/26 01:18:35;;;;;;;8.63;1.70;;;;;;;;;;5007021;28;20441;-81
2023/04/26 01:21:10;;;;;;;9.40;1.55;;;;;;;;;;4990353;28;20799;-79
2023/04/26 01:23:39;;;;;;;9.95;1.52;;;;;;;;;;4992014;28;20402;-79
2023/04/26 01:26:12;;;;;;;9.63;1.50;;;;;;;;;;4991233;28;20462;-80
2023/04/26 01:28:45;;;;;;;7.97;1.53;;;;;;;;;;4992274;28;20858;-81
2023/04/26 01:31:12;;;;;;;7.03;1.30;;;;;;;;;;4990694;28;20901;-79
2023/04/26 01:33:40;;;;;;;7.30;1.50;;;;;;;;;;4989797;28;20426;-80
2023/04/26 01:36:09;;;;;;;4.88;1.40;;;;;;;;;;4989783;28;20422;-80
2023/04/26 01:38:43;;;;;;;6.63;1.48;;;;;;;;;;4990046;28;20443;-80
2023/04/26 01:41:11;;;;;;;6.90;1.67;;;;;;;;;;4990628;28;20457;-79
2023/04/26 01:43:38;;;;;;;8.85;1.48;;;;;;;;;;5006587;28;20429;-80
2023/04/26 01:46:06;;;;;;;10.45;1.88;;;;;;;;;;5005230;28;20433;-79
2023/04/26 01:48:34;;;;;;;6.63;1.60;;;;;;;;;;4990322;28;20429;-79
2023/04/26 01:51:02;;;;;;;7.97;1.70;;;;;;;;;;4993166;28;20414;-80
2023/04/26 01:53:34;;;;;;;8.20;1.67;;;;;;;;;;4990581;28;20434;-79
2023/04/26 01:56:10;;;;;;;7.40;1.70;;;;;;;;;;4982779;28;20434;-81
2023/04/26 01:58:42;;;;;;;5.50;1.60;;;;;;;;;;5003829;28;20761;-80
2023/04/26 02:01:15;;;;;;;7.43;1.50;;;;;;;;;;4992171;28;20438;-80
2023/04/26 02:03:45;;;;;;;8.00;1.70;;;;;;;;;;5004891;28;20753;-81
2023/04/26 02:06:12;;;;;;;8.68;1.60;;;;;;;;;;4991340;28;20438;-80
2023/04/26 02:08:45;;;;;;;8.27;1.85;;;;;;;;;;4990416;28;20788;-79
2023/04/26 02:11:20;;;;;;;7.22;1.55;;;;;;;;;;4991192;28;22164;-79
2023/04/26 02:13:52;;;;;;;7.07;1.97;;;;;;;;;;4991397;28;20453;-80
2023/04/26 02:16:21;;;;;;;7.72;1.73;;;;;;;;;;4977893;28;20423;-80
2023/04/26 02:18:49;;;;;;;6.45;1.70;;;;;;;;;;4991595;28;20406;-79
2023/04/26 02:21:17;;;;;;;6.88;1.60;;;;;;;;;;4990742;28;20414;-80
2023/04/26 02:23:50;;;;;;;11.88;2.40;;;;;;;;;;4989901;28;20434;-80
2023/04/26 02:26:18;;;;;;;6.85;1.88;;;;;;;;;;4988893;28;20793;-80
2023/04/26 02:28:52;;;;;;;11.27;2.47;;;;;;;;;;4989379;28;20414;-80
2023/04/26 02:31:26;;;;;;;9.20;2.03;;;;;;;;;;4996212;28;20420;-81
2023/04/26 02:33:55;;;;;;;7.57;2.30;;;;;;;;;;4989342;28;20431;-80
2023/04/26 02:36:23;;;;;;;11.77;2.10;;;;;;;;;;4991071;28;20975;-80
2023/04/26 02:38:55;;;;;;;8.57;2.27;;;;;;;;;;4991580;28;20430;-79
2023/04/26 02:41:28;;;;;;;6.93;2.00;;;;;;;;;;4987932;28;20418;-81
2023/04/26 02:44:02;;;;;;;9.80;2.45;;;;;;;;;;4988926;28;20424;-80
2023/04/26 02:46:30;;;;;;;9.27;2.40;;;;;;;;;;5005443;28;20435;-79
2023/04/26 02:48:59;;;;;;;7.65;2.13;;;;;;;;;;5005159;28;20426;-80
2023/04/26 02:51:32;;;;;;;6.32;1.90;;;;;;;;;;4997680;28;20932;-80
2023/04/26 02:54:01;;;;;;;7.90;1.92;;;;;;;;;;4989257;28;20435;-80
2023/04/26 02:56:30;;;;;;;10.57;2.20;;;;;;;;;;4993375;28;20418;-80
2023/04/26 02:58:57;;;;;;;10.65;2.20;;;;;;;;;;4993079;28;20435;-81
2023/04/26 03:01:27;;;;;;;11.43;2.45;;;;;;;;;;5008281;28;20425;-80
2023/04/26 03:03:55;;;;;;;9.43;2.15;;;;;;;;;;5009120;28;20457;-80
2023/04/26 03:06:28;;;;;;;10.48;2.47;;;;;;;;;;5009085;28;20437;-79
2023/04/26 03:08:56;;;;;;;7.22;2.20;;;;;;;;;;5009102;28;20421;-80
2023/04/26 03:11:29;;;;;;;8.52;2.45;;;;;;;;;;5007757;28;20430;-80
2023/04/26 03:14:02;;;;;;;9.73;2.07;;;;;;;;;;5002815;28;20779;-79
2023/04/26 03:16:40;;;;;;;10.88;2.38;;;;;;;;;;5009220;28;20426;-79
2023/04/26 03:19:13;;;;;;;7.50;2.28;;;;;;;;;;4993345;28;20437;-80
2023/04/26 03:21:46;;;;;;;11.02;2.75;;;;;;;;;;4983166;28;20918;-79
2023/04/26 03:24:14;;;;;;;12.30;2.65;;;;;;;;;;5008210;28;20422;-80
2023/04/26 03:26:47;;;;;;;9.40;2.63;;;;;;;;;;5007892;28;20779;-79
2023/04/26 03:29:15;;;;;;;9.18;2.47;;;;;;;;;;5009068;28;20415;-79
2023/04/26 03:31:45;;;;;;;8.95;2.42;;;;;;;;;;4993459;28;20422;-80
2023/04/26 03:34:18;;;;;;;14.10;2.70;;;;;;;;;;4994543;28;20420;-79
2023/04/26 03:36:51;;;;;;;8.90;2.88;;;;;;;;;;4992076;28;20415;-79
2023/04/26 03:39:19;;;;;;;10.45;2.50;;;;;;;;;;5001650;28;20426;-79
2023/04/26 03:41:47;;;;;;;8.75;3.08;;;;;;;;;;4993492;28;20817;-80
2023/04/26 03:44:19;;;;;;;8.40;2.83;;;;;;;;;;4991769;28;20430;-80
2023/04/26 03:46:54;;;;;;;9.50;2.90;;;;;;;;;;4988938;28;20424;-79
2023/04/26 03:49:23;;;;;;;9.25;2.80;;;;;;;;;;5003060;28;20443;-80
2023/04/26 03:51:50;;;;;;;10.07;3.50;;;;;;;;;;4994547;28;20433;-79
2023/04/26 03:54:23;;;;;;;10.55;3.35;;;;;;;;;;4992341;28;20863;-82
2023/04/26 03:56:51;;;;;;;11.83;3.47;;;;;;;;;;4992206;28;20803;-80
2023/04/26 03:59:20;;;;;;;12.00;3.33;;;;;;;;;;4991882;28;20802;-79
2023/04/26 04:01:48;;;;;;;13.13;3.80;;;;;;;;;;5009093;28;20423;-79
2023/04/26 04:04:17;;;;;;;12.05;3.50;;;;;;;;;;4992840;28;20430;-80
2023/04/26 04:06:46;;;;;;;12.75;3.55;;;;;;;;;;4991741;28;20429;-80
2023/04/26 04:09:13;;;;;;;10.07;3.05;;;;;;;;;;4993065;28;20418;-78
2023/04/26 04:11:47;;;;;;;12.60;3.30;;;;;;;;;;4991410;28;20926;-79
2023/04/26 04:14:15;;;;;;;9.68;3.63;;;;;;;;;;4991738;28;20778;-80
2023/04/26 04:16:43;;;;;;;9.95;3.55;;;;;;;;;;4988980;28;20916;-79
2023/04/26 04:19:18;;;;;;;11.48;3.70;;;;;;;;;;5006744;28;20958;-80
2023/04/26 04:21:47;;;;;;;8.38;3.10;;;;;;;;;;5008209;28;20442;-82
2023/04/26 04:24:15;;;;;;;8.82;2.90;;;;;;;;;;5007182;28;20437;-80
2023/04/26 04:26:42;;;;;;;8.52;2.75;;;;;;;;;;5003230;28;20782;-80
2023/04/26 04:29:10;;;;;;;10.60;3.10;;;;;;;;;;5008287;28;20441;-80
2023/04/26 04:31:40;;;;;;;7.63;2.60;;;;;;;;;;5008652;28;20942;-79
2023/04/26 04:34:13;;;;;;;9.32;2.80;;;;;;;;;;5008550;28;20522;-80
2023/04/26 04:36:49;;;;;;;8.00;3.00;;;;;;;;;;5002042;28;20420;-80
2023/04/26 04:39:17;;;;;;;8.95;2.58;;;;;;;;;;4988564;28;20424;-79
2023/04/26 04:41:47;;;;;;;7.07;2.80;;;;;;;;;;4989718;28;20429;-81
2023/04/26 04:44:20;;;;;;;9.43;2.50;;;;;;;;;;4992102;28;20923;-80
2023/04/26 04:46:55;;;;;;;11.13;3.22;;;;;;;;;;5008463;28;20421;-79
2023/04/26 04:49:29;;;;;;;15.85;6.28;;;;;;;;;;5009732;28;20779;-80
2023/04/26 04:51:59;;;;;;;11.55;3.50;;;;;;;;;;5007118;28;20426;-79
2023/04/26 04:54:33;;;;;;;12.23;3.90;;;;;;;;;;5009597;28;20413;-79
2023/04/26 04:57:06;;;;;;;11.70;3.92;;;;;;;;;;4990421;28;20420;-80
2023/04/26 04:59:34;;;;;;;12.13;3.53;;;;;;;;;;4990503;28;21193;-79
2023/04/26 05:02:07;;;;;;;13.23;3.58;;;;;;;;;;4988071;28;20441;-79
2023/04/26 05:04:40;;;;;;;11.82;3.15;;;;;;;;;;5007074;28;20433;-80
2023/04/26 05:07:09;;;;;;;11.23;3.42;;;;;;;;;;4990427;28;20498;-79
2023/04/26 05:09:43;;;;;;;8.77;2.95;;;;;;;;;;4989256;28;20419;-80
2023/04/26 05:12:15;;;;;;;10.00;3.70;;;;;;;;;;5008704;28;20470;-80
2023/04/26 05:14:48;;;;;;;9.80;3.20;;;;;;;;;;4990252;28;20418;-80
2023/04/26 05:17:16;;;;;;;9.85;3.35;;;;;;;;;;4990515;28;20431;-79
2023/04/26 05:19:44;;;;;;;13.35;3.55;;;;;;;;;;5005366;28;20444;-79
2023/04/26 05:22:17;;;;;;;12.30;3.63;;;;;;;;;;4989122;28;20438;-80
2023/04/26 05:24:46;;;;;;;8.77;3.30;;;;;;;;;;4990184;28;20903;-80
2023/04/26 05:27:19;;;;;;;8.82;3.30;;;;;;;;;;4989535;28;20461;-80
2023/04/26 05:30:04;;;;;;;12.02;3.08;;;;;;;;;;5004999;28;20426;-79
2023/04/26 05:32:46;;;;;;;8.80;3.10;;;;;;;;;;4989730;28;20928;-80
2023/04/26 05:35:37;;;;;;;12.02;3.28;;;;;;;;;;5002623;28;20410;-80
2023/04/26 05:38:06;;;;;;;10.40;3.20;;;;;;;;;;5015689;28;20795;-82
2023/04/26 05:40:34;;;;;;;9.13;3.20;;;;;;;;;;5003614;28;20420;-79
2023/04/26 05:43:02;;;;;;;8.15;2.90;;;;;;;;;;4990885;28;20453;-80
2023/04/26 05:45:31;;;;;;;10.48;2.92;;;;;;;;;;4987870;28;20429;-82
2023/04/26 05:48:00;;;;;;;11.77;3.30;;;;;;;;;;4989975;28;20431;-79
2023/04/26 05:50:33;;;;;;;11.93;2.90;;;;;;;;;;4999916;28;20921;-81
2023/04/26 05:53:01;;;;;;;8.88;2.75;;;;;;;;;;4991540;28;21069;-80
2023/04/26 05:55:35;;;;;;;10.48;3.28;;;;;;;;;;4990437;28;20411;-80
2023/04/26 05:58:03;;;;;;;11.52;3.10;;;;;;;;;;4993592;28;20418;-82
2023/04/26 06:00:37;;;;;;;8.98;3.28;;;;;;;;;;5005832;28;20445;-85
2023/04/26 06:03:06;;;;;;;9.87;2.90;;;;;;;;;;4988227;28;20419;-81
2023/04/26 06:05:36;;;;;;;13.57;3.28;;;;;;;;;;4968721;28;20430;-81
2023/04/26 06:08:10;;;;;;;8.65;3.10;;;;;;;;;;4979858;28;21296;-80
2023/04/26 06:10:39;;;;;;;12.00;3.10;;;;;;;;;;4981233;28;20440;-80
2023/04/26 06:13:11;;;;;;;9.15;3.38;;;;;;;;;;4983016;28;20434;-81
2023/04/26 06:15:44;;;;;;;11.55;3.65;;;;;;;;;;4989266;28;21500;-80
2023/04/26 06:18:12;;;;;;;9.25;3.08;;;;;;;;;;4987492;28;20438;-80
2023/04/26 06:20:40;;;;;;;11.23;3.50;;;;;;;;;;4992236;28;20440;-80
2023/04/26 06:23:08;;;;;;;9.70;3.30;;;;;;;;;;4983307;28;20433;-81
2023/04/26 06:25:36;;;;;;;9.73;3.65;;;;;;;;;;4989979;28;20446;-82
2023/04/26 06:28:11;;;;;;;12.40;4.00;;;;;;;;;;4977710;28;21426;-80
2023/04/26 06:30:40;;;;;;;11.15;4.22;;;;;;;;;;4972779;28;20904;-80
2023/04/26 06:33:08;;;;;;;7.65;3.30;;;;;;;;;;4990047;28;20424;-81
2023/04/26 06:35:41;;;;;;;9.02;3.70;;;;;;;;;;4983638;28;20437;-83
2023/04/26 06:38:14;;;;;;;10.10;3.40;;;;;;;;;;4979805;28;20434;-81
2023/04/26 06:40:43;;;;;;;9.80;3.30;;;;;;;;;;4998216;28;20445;-80
2023/04/26 06:43:12;;;;;;;13.05;3.80;;;;;;;;;;5001176;28;20445;-79
2023/04/26 06:45:59;;;;;;;13.68;3.85;;;;;;;;;;4999993;28;20426;-80
2023/04/26 06:48:27;;;;;;;11.52;3.97;;;;;;;;;;4982149;28;20922;-81
2023/04/26 06:50:56;;;;;;;14.30;4.45;;;;;;;;;;4989770;28;20429;-80
2023/04/26 06:53:28;;;;;;;12.43;4.43;;;;;;;;;;5006279;28;20434;-80
2023/04/26 06:56:01;;;;;;;14.98;4.70;;;;;;;;;;4989185;28;20430;-80
2023/04/26 06:58:35;;;;;;;14.70;4.40;;;;;;;;;;5008485;28;20437;-82
2023/04/26 07:01:05;;;;;;;12.73;4.60;;;;;;;;;;4988692;28;20446;-80
2023/04/26 07:03:33;;;;;;;13.85;4.50;;;;;;;;;;4988907;28;20438;-80
2023/04/26 07:06:05;;;;;;;11.50;4.05;;;;;;;;;;4987631;28;20831;-81
2023/04/26 07:08:33;;;;;;;11.98;4.32;;;;;;;;;;5000663;28;20439;-80
2023/04/26 07:11:09;;;;;;;10.65;4.25;;;;;;;;;;4987205;28;20434;-80
2023/04/26 07:13:43;;;;;;;12.82;4.30;;;;;;;;;;5003987;28;20434;-81
2023/04/26 07:16:16;;;;;;;11.23;4.10;;;;;;;;;;4989604;28;20463;-81
2023/04/26 07:18:44;;;;;;;11.52;4.00;;;;;;;;;;4991505;28;20421;-81
2023/04/26 07:21:11;;;;;;;12.38;4.07;;;;;;;;;;4982530;28;20431;-81
2023/04/26 07:23:44;;;;;;;13.25;4.03;;;;;;;;;;4989061;28;20422;-80
2023/04/26 07:26:17;;;;;;;14.00;4.18;;;;;;;;;;4988822;28;20433;-80
2023/04/26 07:28:52;;;;;;;9.23;3.78;;;;;;;;;;5005359;28;20447;-80
2023/04/26 07:31:20;;;;;;;13.48;4.00;;;;;;;;;;4983642;28;20449;-80
2023/04/26 07:33:53;;;;;;;10.07;4.00;;;;;;;;;;5001896;28;20441;-79
2023/04/26 07:36:21;;;;;;;15.38;3.95;;;;;;;;;;4985563;28;20543;-80
2023/04/26 07:38:49;;;;;;;12.02;3.70;;;;;;;;;;4984569;28;21121;-80
2023/04/26 07:41:22;;;;;;;11.38;3.78;;;;;;;;;;4984178;28;20923;-82
2023/04/26 07:43:56;;;;;;;10.15;3.58;;;;;;;;;;4981830;28;20443;-80
2023/04/26 07:46:24;;;;;;;11.55;3.42;;;;;;;;;;4984924;28;20441;-80
2023/04/26 07:48:57;;;;;;;9.80;3.40;;;;;;;;;;5004617;28;20795;-82
2023/04/26 07:51:26;;;;;;;10.85;3.40;;;;;;;;;;4987849;28;20445;-82
2023/04/26 07:53:54;;;;;;;10.60;3.22;;;;;;;;;;4984260;28;20445;-80
2023/04/26 07:56:23;;;;;;;9.37;2.90;;;;;;;;;;4989490;28;20871;-80
2023/04/26 07:58:51;;;;;;;10.43;3.17;;;;;;;;;;4998945;28;20862;-81
2023/04/26 08:01:21;;;;;;;9.38;3.28;;;;;;;;;;4977031;28;20439;-81
2023/04/26 08:03:48;;;;;;;9.95;3.10;;;;;;;;;;4998479;28;20441;-80
2023/04/26 08:06:17;;;;;;;9.73;2.83;;;;;;;;;;4989598;28;20438;-80
2023/04/26 08:08:51;;;;;;;8.32;2.42;;;;;;;;;;4976375;28;20449;-80
2023/04/26 08:11:24;;;;;;;7.55;2.40;;;;;;;;;;4997547;28;20419;-80
2023/04/26 08:13:52;;;;;;;10.80;2.30;;;;;;;;;;4985032;28;21224;-80
2023/04/26 08:16:21;;;;;;;7.10;2.20;;;;;;;;;;4973195;28;20422;-80
2023/04/26 08:18:54;;;;;;;7.72;2.22;;;;;;;;;;4976103;28;20674;-81
2023/04/26 08:21:22;;;;;;;8.45;2.30;;;;;;;;;;4984790;28;20491;-81
2023/04/26 08:23:55;;;;;;;8.93;2.58;;;;;;;;;;4969128;28;21058;-81
2023/04/26 08:26:23;;;;;;;6.72;2.35;;;;;;;;;;4971562;28;20430;-81
2023/04/26 08:28:53;;;;;;;8.68;2.53;;;;;;;;;;4991965;28;20438;-81
2023/04/26 08:31:23;;;;;;;9.82;2.60;;;;;;;;;;4975636;28;21200;-80
2023/04/26 08:33:59;;;;;;;9.82;2.50;;;;;;;;;;4967845;28;20442;-80
2023/04/26 08:36:31;;;;;;;8.93;2.42;;;;;;;;;;4987252;28;21256;-81
2023/04/26 08:39:04;;;;;;;8.45;2.38;;;;;;;;;;4980658;28;20797;-81
2023/04/26 08:41:35;;;;;;;7.90;2.35;;;;;;;;;;4990511;28;20438;-80
2023/04/26 08:44:08;;;;;;;8.63;2.53;;;;;;;;;;4972663;28;20446;-81
2023/04/26 08:46:41;;;;;;;8.70;2.40;;;;;;;;;;4985913;28;20434;-81
2023/04/26 08:49:28;;;;;;;11.03;2.60;;;;;;;;;;4987872;28;20439;-81
2023/04/26 08:51:57;;;;;;;8.05;2.72;;;;;;;;;;4984710;28;21803;-82
2023/04/26 08:54:31;;;;;;;7.57;2.50;;;;;;;;;;4968906;28;20946;-81
2023/04/26 08:57:06;;;;;;;8.20;2.30;;;;;;;;;;4972447;28;21143;-81
2023/04/26 08:59:36;;;;;;;7.18;2.28;;;;;;;;;;4975021;28;20426;-82
2023/04/26 09:02:06;;;;;;;6.35;1.90;;;;;;;;;;4990793;28;20434;-80
2023/04/26 09:04:34;;;;;;;6.10;1.70;;;;;;;;;;4971819;28;20434;-80
2023/04/26 09:07:03;;;;;;;4.72;1.77;;;;;;;;;;4988638;28;20426;-81
2023/04/26 09:09:39;;;;;;;5.97;2.00;;;;;;;;;;4990089;28;20443;-80
2023/04/26 09:12:07;;;;;;;10.88;2.25;;;;;;;;;;4989214;28;20692;-80
2023/04/26 09:14:40;;;;;;;6.68;2.13;;;;;;;;;;4972856;28;20938;-81
2023/04/26 09:17:27;;;;;;;7.80;2.10;;;;;;;;;;4974903;28;20437;-80
2023/04/26 09:20:01;;;;;;;5.20;1.70;;;;;;;;;;4971002;28;21009;-81
2023/04/26 09:22:30;;;;;;;8.27;1.90;;;;;;;;;;4969757;28;20433;-82
2023/04/26 09:25:03;;;;;;;4.30;1.77;;;;;;;;;;4975598;28;21772;-81
2023/04/26 09:27:32;;;;;;;5.35;1.50;;;;;;;;;;4968566;28;20441;-81
2023/04/26 09:30:04;;;;;;;6.03;1.73;;;;;;;;;;4989153;28;20435;-80
2023/04/26 09:32:45;;;;;;;4.65;1.63;;;;;;;;;;4976537;28;20453;-81
2023/04/26 09:35:33;;;;;;;7.30;1.70;;;;;;;;;;4974989;28;20446;-81
2023/04/26 09:38:07;;;;;;;9.60;2.08;;;;;;;;;;4968806;28;21378;-80
2023/04/26 09:40:36;;;;;;;6.77;1.70;;;;;;;;;;4974961;28;20422;-81
2023/04/26 09:43:04;;;;;;;7.25;1.85;;;;;;;;;;4988170;28;20424;-80
2023/04/26 09:45:44;;;;;;;4.68;1.58;;;;;;;;;;4972968;28;20440;-80
2023/04/26 09:48:15;;;;;;;6.60;1.60;;;;;;;;;;4980942;28;20424;-81
2023/04/26 09:50:44;;;;;;;7.82;2.03;;;;;;;;;;4987069;28;22085;-80
2023/04/26 09:53:25;;;;;;;7.72;1.77;;;;;;;;;;4991909;28;20438;-81
2023/04/26 09:56:06;;;;;;;6.82;1.80;;;;;;;;;;4990126;28;21357;-80
2023/04/26 09:58:40;;;;;;;6.40;1.67;;;;;;;;;;4984533;28;20528;-80
2023/04/26 10:01:08;;;;;;;6.37;2.00;;;;;;;;;;4951142;28;20997;-80
2023/04/26 10:03:38;;;;;;;6.72;1.77;;;;;;;;;;4972059;28;20424;-80
2023/04/26 10:06:06;;;;;;;6.07;1.53;;;;;;;;;;4980933;28;20929;-81
2023/04/26 10:08:34;;;;;;;4.03;1.27;;;;;;;;;;4973222;28;20443;-80
2023/04/26 10:11:09;;;;;;;5.32;1.27;;;;;;;;;;4988285;28;21026;-80
2023/04/26 10:13:37;;;;;;;4.15;1.30;;;;;;;;;;4976171;28;20439;-81
2023/04/26 10:16:10;;;;;;;3.40;1.30;;;;;;;;;;4972061;28;20426;-80
2023/04/26 10:18:44;;;;;;;4.50;1.50;;;;;;;;;;4976585;28;20434;-80
2023/04/26 10:21:20;;;;;;;3.97;1.40;;;;;;;;;;4992831;28;20440;-81
2023/04/26 10:23:49;;;;;;;4.80;1.50;;;;;;;;;;4974489;28;20436;-80
2023/04/26 10:26:36;;;;;;;5.50;1.77;;;;;;;;;;4981043;28;21021;-80
2023/04/26 10:29:03;;;;;;;5.97;1.75;;;;;;;;;;4976990;28;20437;-81
2023/04/26 10:31:52;;;;;;;6.65;1.80;;;;;;;;;;4970458;28;20978;-80
2023/04/26 10:34:22;;;;;;;6.28;2.13;;;;;;;;;;4970756;28;20438;-81
2023/04/26 10:37:08;;;;;;;6.20;1.95;;;;;;;;;;4975450;28;20500;-83
2023/04/26 10:39:41;;;;;;;7.80;1.92;;;;;;;;;;4981125;28;20430;-82
2023/04/26 10:42:21;;;;;;;6.63;1.70;;;;;;;;;;4975346;28;20464;-82
2023/04/26 10:44:49;;;;;;;5.95;1.95;;;;;;;;;;4992872;28;20935;-80
2023/04/26 10:47:22;;;;;;;6.28;1.80;;;;;;;;;;4973774;28;20438;-80
2023/04/26 10:49:52;;;;;;;4.18;1.45;;;;;;;;;;4970546;28;20434;-81
2023/04/26 10:52:25;;;;;;;5.78;1.40;;;;;;;;;;4975847;28;20450;-80
2023/04/26 10:54:54;;;;;;;3.95;1.50;;;;;;;;;;4977236;28;20962;-83
2023/04/26 10:57:22;;;;;;;4.72;1.55;;;;;;;;;;4975030;28;20432;-79
2023/04/26 11:00:09;;;;;;;5.97;1.42;;;;;;;;;;4959468;28;21198;-80
2023/04/26 11:02:56;;;;;;;6.15;1.70;;;;;;;;;;4971605;28;20428;-80
2023/04/26 11:05:38;;;;;;;8.85;2.15;;;;;;;;;;4968023;28;20434;-81
2023/04/26 11:08:07;;;;;;;8.05;2.20;;;;;;;;;;4984704;28;20490;-82
2023/04/26 11:10:40;;;;;;;4.78;1.70;;;;;;;;;;4968171;28;20438;-80
2023/04/26 11:13:08;;;;;;;6.75;2.10;;;;;;;;;;4983646;28;20433;-81
2023/04/26 11:15:36;;;;;;;4.97;1.75;;;;;;;;;;4985583;28;20927;-80
2023/04/26 11:18:04;;;;;;;4.07;1.60;;;;;;;;;;4993687;28;20429;-81
2023/04/26 11:20:33;;;;;;;5.03;1.47;;;;;;;;;;4991407;28;20476;-79
2023/04/26 11:23:02;;;;;;;5.47;1.60;;;;;;;;;;4973771;28;20429;-80
2023/04/26 11:25:30;;;;;;;3.85;1.48;;;;;;;;;;4989183;28;20899;-80
2023/04/26 11:28:03;;;;;;;7.38;1.73;;;;;;;;;;4970617;28;20420;-80
2023/04/26 11:30:31;;;;;;;4.95;1.50;;;;;;;;;;4983316;28;20448;-81
2023/04/26 11:33:04;;;;;;;4.38;1.52;;;;;;;;;;4991270;28;20453;-80
2023/04/26 11:35:39;;;;;;;5.38;1.30;;;;;;;;;;4991832;28;20440;-80
2023/04/26 11:38:13;;;;;;;6.28;1.73;;;;;;;;;;4979910;28;20424;-80
2023/04/26 11:40:42;;;;;;;5.80;1.58;;;;;;;;;;4992451;28;21009;-80
2023/04/26 11:43:15;;;;;;;4.15;1.50;;;;;;;;;;4987737;28;20783;-80
2023/04/26 11:45:43;;;;;;;5.22;1.50;;;;;;;;;;4974439;28;20445;-80
2023/04/26 11:48:12;;;;;;;5.78;1.60;;;;;;;;;;4994428;28;20442;-80
2023/04/26 11:50:40;;;;;;;4.55;1.45;;;;;;;;;;4987020;28;20937;-80
2023/04/26 11:53:15;;;;;;;4.47;1.50;;;;;;;;;;4995191;28;20430;-80
2023/04/26 11:55:48;;;;;;;3.53;1.50;;;;;;;;;;4983962;28;20502;-80
2023/04/26 11:58:16;;;;;;;5.10;1.50;;;;;;;;;;4977769;28;20720;-79
2023/04/26 12:00:55;;;;;;;4.30;1.40;;;;;;;;;;4944934;28;20463;-80
2023/04/26 12:03:23;;;;;;;4.63;1.30;;;;;;;;;;4987045;28;20430;-80
2023/04/26 12:05:54;;;;;;;5.05;1.40;;;;;;;;;;4983386;28;20434;-81
2023/04/26 12:08:28;;;;;;;3.83;1.25;;;;;;;;;;4988020;28;20806;-80
2023/04/26 12:11:01;;;;;;;5.35;1.63;;;;;;;;;;4982281;28;20928;-80
2023/04/26 12:13:29;;;;;;;6.50;1.73;;;;;;;;;;4975093;28;20437;-80
2023/04/26 12:16:07;;;;;;;3.80;1.30;;;;;;;;;;4966880;28;20442;-80
2023/04/26 12:18:35;;;;;;;4.10;1.30;;;;;;;;;;4990810;28;21138;-80
2023/04/26 12:21:03;;;;;;;3.60;1.10;;;;;;;;;;4967929;28;20443;-81
2023/04/26 12:23:39;;;;;;;5.28;1.30;;;;;;;;;;4972454;28;20433;-80
2023/04/26 12:26:09;;;;;;;3.88;1.20;;;;;;;;;;4978420;28;20421;-79
2023/04/26 12:28:42;;;;;;;2.60;1.10;;;;;;;;;;4968402;28;20789;-80
2023/04/26 12:31:15;;;;;;;3.15;1.10;;;;;;;;;;4975845;28;20960;-79
2023/04/26 12:33:43;;;;;;;3.88;1.13;;;;;;;;;;4972262;28;20445;-79
2023/04/26 12:36:11;;;;;;;4.30;1.00;;;;;;;;;;4971361;28;20441;-79
2023/04/26 12:38:40;;;;;;;3.47;0.90;;;;;;;;;;4983096;28;20426;-80
2023/04/26 12:41:08;;;;;;;4.95;1.40;;;;;;;;;;4972151;28;20649;-80
2023/04/26 12:43:36;;;;;;;3.15;0.93;;;;;;;;;;4974153;28;20802;-80
2023/04/26 12:46:04;;;;;;;5.03;1.00;;;;;;;;;;4967144;28;20445;-79
2023/04/26 12:48:37;;;;;;;5.03;1.15;;;;;;;;;;4969653;28;20452;-79
2023/04/26 12:51:09;;;;;;;5.47;1.20;;;;;;;;;;4972223;28;20435;-81
2023/04/26 12:53:37;;;;;;;2.53;1.10;;;;;;;;;;4990539;28;20433;-80
2023/04/26 12:56:06;;;;;;;2.55;1.00;;;;;;;;;;4976980;28;20435;-79
2023/04/26 12:58:40;;;;;;;3.70;0.98;;;;;;;;;;4989859;28;20441;-79
2023/04/26 13:01:13;;;;;;;3.97;0.90;;;;;;;;;;4941551;28;20459;-79
2023/04/26 13:03:41;;;;;;;2.42;1.00;;;;;;;;;;4971122;28;21541;-80
2023/04/26 13:06:09;;;;;;;2.60;0.90;;;;;;;;;;4976329;28;20430;-82
2023/04/26 13:08:42;;;;;;;3.78;1.10;;;;;;;;;;4965603;28;21872;-80
2023/04/26 13:11:11;;;;;;;3.72;1.08;;;;;;;;;;4980342;28;21343;-80
2023/04/26 13:13:44;;;;;;;4.90;0.98;;;;;;;;;;4970281;28;21274;-80
2023/04/26 13:16:17;;;;;;;4.85;1.05;;;;;;;;;;4969003;28;20453;-79
2023/04/26 13:18:49;;;;;;;4.07;1.30;;;;;;;;;;4978589;28;20449;-80
2023/04/26 13:21:22;;;;;;;3.53;1.02;;;;;;;;;;4974807;28;20442;-81
2023/04/26 13:23:50;;;;;;;3.72;1.00;;;;;;;;;;4971284;28;20649;-80
2023/04/26 13:26:19;;;;;;;3.90;1.10;;;;;;;;;;4986936;28;20436;-80
2023/04/26 13:28:47;;;;;;;4.45;1.00;;;;;;;;;;4986899;28;20445;-80
2023/04/26 13:31:16;;;;;;;8.05;1.30;;;;;;;;;;4972978;28;20454;-79
2023/04/26 13:33:49;;;;;;;4.28;1.17;;;;;;;;;;4970352;28;20437;-80
2023/04/26 13:36:17;;;;;;;1.98;0.73;;;;;;;;;;4969181;28;20445;-79
2023/04/26 13:38:45;;;;;;;3.60;1.03;;;;;;;;;;4968548;28;20430;-78
2023/04/26 13:41:21;;;;;;;3.63;1.00;;;;;;;;;;4968531;28;20895;-79
2023/04/26 13:43:54;;;;;;;6.03;1.00;;;;;;;;;;4983799;28;20442;-80
2023/04/26 13:46:27;;;;;;;2.97;0.93;;;;;;;;;;4993968;28;20436;-79
2023/04/26 13:49:00;;;;;;;4.72;1.00;;;;;;;;;;4965447;28;20435;-79
2023/04/26 13:51:33;;;;;;;5.80;1.15;;;;;;;;;;4985339;28;20897;-80
2023/04/26 13:54:06;;;;;;;4.18;1.08;;;;;;;;;;4987005;28;20438;-80
2023/04/26 13:56:40;;;;;;;2.58;0.90;;;;;;;;;;4976004;28;20432;-80
2023/04/26 13:59:13;;;;;;;4.43;1.00;;;;;;;;;;4964540;28;20436;-80
2023/04/26 14:01:46;;;;;;;3.72;1.00;;;;;;;;;;4967379;28;20438;-80
2023/04/26 14:04:14;;;;;;;3.70;0.90;;;;;;;;;;4987217;28;20430;-79
2023/04/26 14:06:47;;;;;;;3.28;0.85;;;;;;;;;;4968951;28;20449;-79
2023/04/26 14:09:15;;;;;;;4.72;0.90;;;;;;;;;;4986810;28;20434;-79
2023/04/26 14:11:44;;;;;;;3.83;1.00;;;;;;;;;;4969691;28;20443;-79
2023/04/26 14:14:12;;;;;;;2.28;0.85;;;;;;;;;;4984741;28;22217;-80
2023/04/26 14:16:40;;;;;;;5.60;1.00;;;;;;;;;;4972680;28;21131;-80
2023/04/26 14:19:14;;;;;;;3.05;0.95;;;;;;;;;;4965934;28;20434;-80
2023/04/26 14:21:46;;;;;;;3.47;1.20;;;;;;;;;;4964583;28;20422;-82
2023/04/26 14:24:14;;;;;;;3.75;0.90;;;;;;;;;;4975899;28;20438;-79
2023/04/26 14:26:42;;;;;;;5.78;1.40;;;;;;;;;;4986391;28;20430;-81
2023/04/26 14:29:11;;;;;;;7.17;1.53;;;;;;;;;;4988536;28;20871;-80
2023/04/26 14:31:39;;;;;;;3.78;1.10;;;;;;;;;;4971312;28;21507;-80
2023/04/26 14:34:07;;;;;;;5.63;1.27;;;;;;;;;;4966588;28;20432;-80
2023/04/26 14:36:42;;;;;;;5.53;1.63;;;;;;;;;;4985978;28;20448;-80
2023/04/26 14:39:15;;;;;;;8.60;2.30;;;;;;;;;;4972534;28;20715;-80
2023/04/26 14:41:43;;;;;;;6.43;1.50;;;;;;;;;;4988231;28;20446;-81
2023/04/26 14:44:12;;;;;;;5.43;1.23;;;;;;;;;;4973030;28;20422;-81
2023/04/26 14:46:40;;;;;;;5.57;1.17;;;;;;;;;;4968382;28;20449;-81
2023/04/26 14:49:08;;;;;;;5.65;1.60;;;;;;;;;;4978570;28;20410;-80
2023/04/26 14:51:40;;;;;;;2.53;1.08;;;;;;;;;;4971995;28;20445;-80
2023/04/26 14:54:08;;;;;;;3.47;0.88;;;;;;;;;;4990149;28;20436;-83
2023/04/26 14:56:41;;;;;;;4.33;1.33;;;;;;;;;;4973283;28;20433;-79
2023/04/26 14:59:09;;;;;;;5.30;1.20;;;;;;;;;;4971422;28;20437;-82
2023/04/26 15:01:38;;;;;;;4.23;1.30;;;;;;;;;;4966294;28;20442;-80
2023/04/26 15:04:06;;;;;;;3.33;1.13;;;;;;;;;;4976206;28;20442;-80